Time;durP1;ratioP1;P1;durP2;ratioP2;P2;SDS_P1;SDS_P2;PMS_P1;PMS_P2;Temp;Humidity;BMP_temperature;BMP_pressure;BME280_temperature;BME280_humidity;BME280_pressure;Samples;Min_cycle;Max_cycle;Signal;HPM_P1;HPM_P2
2022/04/11 00:01:36;;;;;;;4.97;1.40;;;2.80;99.90;;;;;;4983197;28;20112;-73
2022/04/11 00:04:01;;;;;;;2.15;1.50;;;2.90;99.90;;;;;;4999136;28;20099;-73
2022/04/11 00:06:27;;;;;;;3.42;1.40;;;2.70;99.90;;;;;;5015111;28;20390;-73
2022/04/11 00:08:53;;;;;;;2.55;1.33;;;2.80;99.90;;;;;;4998985;28;20057;-72
2022/04/11 00:11:18;;;;;;;2.92;1.25;;;2.60;99.90;;;;;;5015067;28;20061;-72
2022/04/11 00:13:44;;;;;;;2.72;1.30;;;3.10;99.90;;;;;;4982651;28;20049;-73
2022/04/11 00:16:10;;;;;;;2.75;1.30;;;3.00;99.90;;;;;;5014980;28;20050;-74
2022/04/11 00:18:36;;;;;;;2.40;1.40;;;2.70;99.90;;;;;;5015847;28;20422;-74
2022/04/11 00:21:02;;;;;;;2.22;1.30;;;2.20;99.90;;;;;;4998777;28;20041;-74
2022/04/11 00:23:28;;;;;;;2.35;1.50;;;2.70;99.90;;;;;;5016006;28;20137;-74
2022/04/11 00:25:54;;;;;;;4.13;1.80;;;2.60;99.90;;;;;;5014959;28;20141;-74
2022/04/11 00:28:19;;;;;;;3.90;1.00;;;2.60;99.90;;;;;;5015794;28;20486;-73
2022/04/11 00:30:45;;;;;;;3.60;1.40;;;2.60;99.90;;;;;;5014643;28;20050;-73
2022/04/11 00:33:11;;;;;;;3.92;1.40;;;3.10;99.90;;;;;;5015794;28;20050;-74
2022/04/11 00:35:36;;;;;;;3.22;1.67;;;2.50;99.90;;;;;;5014779;28;20398;-73
2022/04/11 00:38:02;;;;;;;2.55;1.58;;;2.50;99.90;;;;;;5016294;28;20041;-73
2022/04/11 00:40:28;;;;;;;2.90;1.48;;;2.50;99.90;;;;;;5014716;28;20055;-73
2022/04/11 00:42:54;;;;;;;3.53;1.35;;;2.60;99.90;;;;;;4997577;28;20069;-73
2022/04/11 00:45:19;;;;;;;3.25;1.92;;;2.40;99.90;;;;;;5013948;28;20132;-73
2022/04/11 00:47:45;;;;;;;3.42;1.50;;;2.40;99.90;;;;;;5015501;28;20046;-73
2022/04/11 00:50:13;;;;;;;2.70;1.50;;;2.10;99.90;;;;;;4999087;28;20049;-73
2022/04/11 00:52:43;;;;;;;2.83;1.40;;;2.30;99.90;;;;;;5014180;28;20052;-73
2022/04/11 00:55:10;;;;;;;3.33;1.42;;;2.40;99.90;;;;;;5016250;28;20379;-73
2022/04/11 00:57:36;;;;;;;4.13;1.80;;;2.40;99.90;;;;;;5014403;28;20085;-73
2022/04/11 01:00:04;;;;;;;2.75;1.80;;;2.40;99.90;;;;;;5014200;28;20151;-73
2022/04/11 01:02:30;;;;;;;3.13;1.73;;;2.40;99.90;;;;;;5013997;28;20050;-73
2022/04/11 01:04:55;;;;;;;2.75;2.08;;;2.30;99.90;;;;;;4997807;28;20046;-74
2022/04/11 01:07:21;;;;;;;3.65;1.42;;;2.90;99.90;;;;;;5015466;28;20085;-73
2022/04/11 01:09:47;;;;;;;2.83;1.55;;;2.40;99.90;;;;;;5014163;28;20478;-73
2022/04/11 01:12:15;;;;;;;3.63;1.70;;;2.30;99.90;;;;;;4981289;28;20057;-74
2022/04/11 01:14:42;;;;;;;3.85;1.70;;;2.30;99.90;;;;;;5014401;28;20137;-73
2022/04/11 01:17:08;;;;;;;3.67;1.70;;;3.10;99.90;;;;;;4997903;28;20077;-73
2022/04/11 01:19:34;;;;;;;2.58;1.23;;;2.60;99.90;;;;;;5014974;28;20057;-73
2022/04/11 01:22:00;;;;;;;3.67;1.58;;;2.10;99.90;;;;;;4997553;28;20501;-73
2022/04/11 01:24:28;;;;;;;2.85;1.58;;;1.90;99.90;;;;;;5013686;28;20042;-73
2022/04/11 01:26:54;;;;;;;2.35;1.83;;;2.10;99.90;;;;;;5013551;28;20038;-73
2022/04/11 01:29:21;;;;;;;2.63;1.50;;;1.80;99.90;;;;;;4997412;28;20485;-73
2022/04/11 01:31:47;;;;;;;2.28;1.75;;;3.10;99.90;;;;;;4997364;28;20381;-74
2022/04/11 01:34:13;;;;;;;1.90;1.50;;;2.10;99.90;;;;;;5014424;28;20557;-74
2022/04/11 01:36:39;;;;;;;3.63;1.73;;;2.30;99.90;;;;;;5013482;28;20128;-74
2022/04/11 01:39:05;;;;;;;1.92;1.48;;;2.10;99.90;;;;;;5015157;28;20131;-73
2022/04/11 01:41:30;;;;;;;2.97;1.52;;;2.70;99.90;;;;;;5014492;28;20478;-73
2022/04/11 01:43:56;;;;;;;5.63;1.80;;;2.50;99.90;;;;;;5014520;28;20046;-74
2022/04/11 01:46:22;;;;;;;2.92;1.63;;;2.00;99.90;;;;;;4980815;28;20135;-73
2022/04/11 01:48:48;;;;;;;4.80;2.00;;;2.00;99.90;;;;;;5013299;28;20406;-74
2022/04/11 01:51:14;;;;;;;3.47;1.77;;;2.90;99.90;;;;;;4997954;28;20052;-74
2022/04/11 01:53:40;;;;;;;3.25;1.75;;;2.40;99.90;;;;;;5014322;28;20133;-74
2022/04/11 01:56:06;;;;;;;2.95;1.70;;;2.00;99.90;;;;;;5013382;28;20124;-73
2022/04/11 01:58:31;;;;;;;2.25;1.70;;;3.10;99.90;;;;;;5013081;28;20049;-74
2022/04/11 02:00:58;;;;;;;4.07;2.03;;;2.00;99.90;;;;;;5014826;28;20050;-74
2022/04/11 02:03:25;;;;;;;2.28;1.77;;;2.00;99.90;;;;;;4996632;28;20101;-74
2022/04/11 02:05:51;;;;;;;2.63;1.75;;;2.00;99.90;;;;;;5013019;28;20046;-73
2022/04/11 02:08:17;;;;;;;2.92;1.50;;;2.70;99.90;;;;;;5012746;28;20048;-73
2022/04/11 02:10:42;;;;;;;4.13;2.00;;;2.00;99.90;;;;;;4996507;28;20057;-74
2022/04/11 02:13:08;;;;;;;3.45;1.92;;;1.70;99.90;;;;;;5013632;28;20485;-74
2022/04/11 02:15:34;;;;;;;5.10;2.08;;;3.00;99.90;;;;;;5013066;28;20096;-73
2022/04/11 02:18:00;;;;;;;6.20;1.70;;;2.60;99.90;;;;;;4980561;28;20137;-73
2022/04/11 02:20:26;;;;;;;3.25;1.58;;;1.80;99.90;;;;;;5012827;28;20088;-73
2022/04/11 02:22:56;;;;;;;2.88;1.75;;;2.40;99.90;;;;;;4996710;28;20451;-73
2022/04/11 02:25:24;;;;;;;3.35;1.77;;;1.60;99.90;;;;;;5013375;28;20046;-73
2022/04/11 02:27:51;;;;;;;4.68;2.08;;;1.80;99.90;;;;;;5012710;28;20050;-73
2022/04/11 02:30:18;;;;;;;2.78;1.67;;;2.60;99.90;;;;;;5013320;28;20057;-73
2022/04/11 02:32:45;;;;;;;2.83;1.80;;;2.60;99.90;;;;;;5013932;28;20045;-73
2022/04/11 02:35:11;;;;;;;2.53;1.55;;;2.40;99.90;;;;;;5012932;28;20088;-73
2022/04/11 02:37:37;;;;;;;2.35;1.90;;;2.50;99.90;;;;;;5013526;28;20046;-73
2022/04/11 02:40:05;;;;;;;5.20;2.40;;;2.60;99.90;;;;;;5013431;28;20352;-73
2022/04/11 02:42:31;;;;;;;3.72;2.25;;;2.00;99.90;;;;;;4996127;28;20046;-73
2022/04/11 02:44:57;;;;;;;4.93;2.00;;;2.00;99.90;;;;;;4996393;28;20050;-73
2022/04/11 02:47:23;;;;;;;2.67;2.00;;;1.90;99.90;;;;;;4980315;28;20367;-73
2022/04/11 02:49:49;;;;;;;3.20;1.55;;;2.00;99.90;;;;;;4996757;28;20386;-73
2022/04/11 02:52:15;;;;;;;4.78;1.80;;;2.00;99.90;;;;;;5013563;28;20046;-73
2022/04/11 02:54:41;;;;;;;3.33;2.10;;;1.90;99.90;;;;;;4996110;28;20045;-74
2022/04/11 02:57:07;;;;;;;2.78;2.00;;;1.90;99.90;;;;;;5012676;28;20048;-73
2022/04/11 02:59:33;;;;;;;4.28;1.95;;;1.90;99.90;;;;;;5012147;28;20049;-73
2022/04/11 03:02:00;;;;;;;5.50;2.17;;;2.00;99.90;;;;;;4996387;28;20433;-73
2022/04/11 03:04:26;;;;;;;4.65;1.80;;;2.50;99.90;;;;;;4996560;28;20386;-73
2022/04/11 03:06:53;;;;;;;5.40;2.05;;;2.80;99.90;;;;;;5016767;28;20100;-73
2022/04/11 03:09:19;;;;;;;2.65;1.70;;;1.80;99.90;;;;;;4999764;28;20049;-73
2022/04/11 03:11:46;;;;;;;2.42;1.70;;;1.80;99.90;;;;;;5016355;28;20108;-74
2022/04/11 03:14:11;;;;;;;2.92;1.80;;;2.20;99.90;;;;;;5017218;28;20437;-73
2022/04/11 03:16:37;;;;;;;3.42;1.95;;;1.80;99.90;;;;;;5017871;28;20046;-73
2022/04/11 03:19:03;;;;;;;3.70;1.77;;;2.10;99.90;;;;;;4999966;28;20397;-73
2022/04/11 03:21:29;;;;;;;3.30;2.00;;;1.80;99.90;;;;;;5015997;28;20426;-74
2022/04/11 03:23:55;;;;;;;5.75;1.92;;;1.80;99.90;;;;;;4999841;28;20046;-73
2022/04/11 03:26:20;;;;;;;3.33;1.80;;;1.80;99.90;;;;;;4999628;28;20050;-73
2022/04/11 03:28:46;;;;;;;3.28;1.95;;;2.00;99.90;;;;;;5000123;28;20538;-73
2022/04/11 03:31:12;;;;;;;5.30;2.03;;;2.50;99.90;;;;;;5015845;28;20528;-74
2022/04/11 03:33:38;;;;;;;2.70;2.20;;;1.80;99.90;;;;;;5016936;28;20375;-73
2022/04/11 03:36:05;;;;;;;3.45;1.70;;;1.80;99.90;;;;;;5016929;28;20049;-73
2022/04/11 03:38:31;;;;;;;3.60;2.03;;;1.80;99.90;;;;;;4999518;28;20088;-74
2022/04/11 03:40:56;;;;;;;3.42;2.00;;;1.70;99.90;;;;;;4999716;28;20057;-74
2022/04/11 03:43:22;;;;;;;2.97;1.60;;;2.30;99.90;;;;;;4999465;28;20052;-74
2022/04/11 03:45:48;;;;;;;3.38;1.80;;;1.80;99.90;;;;;;5015784;28;20054;-73
2022/04/11 03:48:14;;;;;;;2.38;1.45;;;1.80;99.90;;;;;;5015540;28;20474;-74
2022/04/11 03:50:39;;;;;;;2.22;1.30;;;1.90;99.90;;;;;;5015700;28;20046;-73
2022/04/11 03:53:05;;;;;;;4.28;1.70;;;2.00;99.90;;;;;;5016580;28;20481;-73
2022/04/11 03:55:31;;;;;;;2.95;1.52;;;2.90;99.90;;;;;;4999233;28;20037;-72
2022/04/11 03:57:57;;;;;;;2.90;1.58;;;2.00;99.90;;;;;;4998722;28;20133;-73
2022/04/11 04:00:23;;;;;;;4.40;1.60;;;1.90;99.90;;;;;;5015786;28;20045;-73
2022/04/11 04:02:50;;;;;;;3.83;1.65;;;2.10;99.90;;;;;;5015249;28;20116;-73
2022/04/11 04:05:16;;;;;;;2.75;1.40;;;2.20;99.90;;;;;;5016556;28;20508;-73
2022/04/11 04:07:41;;;;;;;4.32;1.35;;;2.20;99.90;;;;;;4999041;28;20054;-73
2022/04/11 04:10:08;;;;;;;3.63;1.60;;;2.20;99.90;;;;;;5015188;28;20382;-73
2022/04/11 04:12:34;;;;;;;2.35;1.40;;;2.20;99.90;;;;;;4998496;28;20097;-73
2022/04/11 04:15:00;;;;;;;2.72;1.45;;;2.30;99.90;;;;;;5015028;28;20096;-73
2022/04/11 04:17:26;;;;;;;3.20;1.63;;;2.60;99.90;;;;;;5013878;28;20198;-73
2022/04/11 04:19:52;;;;;;;2.90;1.35;;;2.30;99.90;;;;;;5014971;28;20046;-73
2022/04/11 04:22:18;;;;;;;3.22;1.38;;;2.40;99.90;;;;;;5016888;28;20444;-73
2022/04/11 04:24:44;;;;;;;4.15;1.17;;;2.50;99.90;;;;;;5015708;28;20505;-72
2022/04/11 04:27:10;;;;;;;3.20;1.13;;;2.50;99.90;;;;;;5014718;28;20057;-73
2022/04/11 04:29:35;;;;;;;3.22;1.45;;;2.50;99.90;;;;;;5014926;28;20042;-73
2022/04/11 04:32:02;;;;;;;2.92;1.17;;;2.60;99.90;;;;;;4998608;28;20046;-73
2022/04/11 04:34:31;;;;;;;4.30;1.25;;;2.60;99.90;;;;;;4999361;28;20046;-73
2022/04/11 04:36:58;;;;;;;3.20;1.55;;;2.60;99.90;;;;;;4982739;28;20045;-73
2022/04/11 04:39:27;;;;;;;2.15;1.00;;;3.90;99.90;;;;;;5015796;28;20088;-72
2022/04/11 04:41:52;;;;;;;1.98;0.90;;;2.70;99.90;;;;;;5014586;28;20042;-73
2022/04/11 04:44:18;;;;;;;3.50;1.60;;;2.70;99.90;;;;;;5014152;28;20092;-72
2022/04/11 04:46:44;;;;;;;3.20;1.35;;;2.80;99.90;;;;;;5015554;28;20118;-72
2022/04/11 04:49:09;;;;;;;3.33;1.35;;;2.80;99.90;;;;;;5015826;28;20132;-73
2022/04/11 04:51:35;;;;;;;2.60;1.23;;;2.80;99.90;;;;;;5014316;28;20050;-73
2022/04/11 04:54:01;;;;;;;2.42;1.20;;;2.90;99.90;;;;;;5014072;28;20045;-73
2022/04/11 04:56:28;;;;;;;2.88;1.48;;;2.90;99.90;;;;;;4998758;28;20104;-73
2022/04/11 04:58:54;;;;;;;3.72;1.45;;;2.90;99.90;;;;;;5014371;28;20045;-73
2022/04/11 05:01:20;;;;;;;2.35;1.52;;;3.20;99.90;;;;;;4998806;28;20050;-73
2022/04/11 05:03:46;;;;;;;3.35;1.60;;;3.00;99.90;;;;;;5014017;28;20042;-73
2022/04/11 05:06:11;;;;;;;5.28;1.67;;;3.00;99.90;;;;;;4997426;28;20095;-73
2022/04/11 05:08:37;;;;;;;5.07;1.63;;;3.70;99.90;;;;;;4998695;28;20061;-73
2022/04/11 05:11:03;;;;;;;3.03;1.90;;;3.10;99.90;;;;;;4997580;28;20470;-73
2022/04/11 05:13:29;;;;;;;2.95;1.50;;;3.10;99.90;;;;;;4997822;28;20065;-74
2022/04/11 05:15:54;;;;;;;4.18;1.70;;;3.10;99.90;;;;;;4998032;28;20061;-74
2022/04/11 05:18:20;;;;;;;4.38;1.63;;;3.60;99.90;;;;;;4997418;28;20064;-74
2022/04/11 05:20:46;;;;;;;2.80;1.50;;;3.20;99.90;;;;;;4997498;28;20046;-73
2022/04/11 05:23:11;;;;;;;3.53;1.52;;;3.30;99.90;;;;;;5014905;28;20050;-73
2022/04/11 05:25:37;;;;;;;2.05;1.30;;;3.30;99.90;;;;;;5013613;28;20056;-73
2022/04/11 05:28:03;;;;;;;3.42;1.55;;;3.70;99.90;;;;;;5013251;28;20049;-73
2022/04/11 05:30:34;;;;;;;2.90;1.52;;;3.30;99.90;;;;;;4997506;28;20112;-73
2022/04/11 05:33:00;;;;;;;3.58;2.08;;;3.60;99.90;;;;;;4998971;28;20437;-73
2022/04/11 05:35:26;;;;;;;4.82;2.20;;;4.40;99.90;;;;;;5014719;28;20037;-73
2022/04/11 05:37:52;;;;;;;5.03;2.00;;;3.40;99.90;;;;;;4997345;28;20103;-73
2022/04/11 05:40:18;;;;;;;5.18;2.00;;;3.50;99.90;;;;;;5013403;28;20045;-73
2022/04/11 05:42:43;;;;;;;8.60;2.05;;;3.50;99.90;;;;;;5013490;28;20042;-73
2022/04/11 05:45:09;;;;;;;3.28;1.70;;;3.50;99.90;;;;;;4996980;28;20038;-74
2022/04/11 05:47:35;;;;;;;4.20;1.85;;;3.50;99.90;;;;;;5014312;28;20133;-74
2022/04/11 05:50:01;;;;;;;3.08;2.05;;;3.60;99.90;;;;;;5013276;28;20132;-74
2022/04/11 05:52:27;;;;;;;3.30;1.88;;;3.60;99.90;;;;;;5013260;28;20042;-73
2022/04/11 05:54:52;;;;;;;4.18;1.70;;;3.70;99.90;;;;;;5013500;28;20050;-73
2022/04/11 05:57:18;;;;;;;4.38;2.15;;;3.70;99.90;;;;;;4997349;28;20042;-73
2022/04/11 05:59:44;;;;;;;4.10;1.73;;;3.80;99.90;;;;;;5014362;28;20053;-74
2022/04/11 06:02:09;;;;;;;5.25;2.10;;;4.60;99.90;;;;;;4997278;28;20116;-74
2022/04/11 06:04:37;;;;;;;3.63;2.28;;;3.90;99.90;;;;;;5014278;28;20046;-74
2022/04/11 06:07:04;;;;;;;3.35;1.80;;;4.20;99.90;;;;;;4980654;28;20408;-74
2022/04/11 06:09:30;;;;;;;4.05;2.30;;;4.00;99.90;;;;;;5012952;28;20045;-74
2022/04/11 06:11:56;;;;;;;4.10;2.17;;;4.20;99.90;;;;;;5012753;28;20105;-74
2022/04/11 06:14:22;;;;;;;5.13;1.98;;;4.10;99.90;;;;;;5012839;28;20149;-74
2022/04/11 06:16:48;;;;;;;5.30;2.03;;;4.10;99.90;;;;;;5014098;28;20129;-73
2022/04/11 06:19:14;;;;;;;4.15;2.15;;;4.50;99.90;;;;;;5013348;28;20128;-73
2022/04/11 06:21:40;;;;;;;5.03;1.75;;;4.20;99.90;;;;;;4997669;28;20068;-73
2022/04/11 06:24:06;;;;;;;3.00;1.67;;;4.30;99.90;;;;;;4996862;28;20041;-73
2022/04/11 06:26:32;;;;;;;3.42;2.10;;;4.30;99.90;;;;;;5013811;28;20133;-73
2022/04/11 06:28:58;;;;;;;3.33;1.42;;;4.40;99.90;;;;;;5012795;28;20140;-73
2022/04/11 06:31:23;;;;;;;2.67;1.77;;;4.30;99.90;;;;;;4996942;28;20046;-73
2022/04/11 06:33:49;;;;;;;4.63;1.50;;;4.90;99.90;;;;;;5013945;28;20081;-73
2022/04/11 06:36:15;;;;;;;4.35;1.50;;;4.50;99.90;;;;;;5012688;28;20038;-73
2022/04/11 06:38:40;;;;;;;7.35;2.25;;;4.90;99.90;;;;;;4997324;28;20052;-73
2022/04/11 06:41:07;;;;;;;5.25;1.73;;;4.60;99.90;;;;;;5016822;28;20048;-73
2022/04/11 06:43:33;;;;;;;3.70;2.05;;;4.70;99.90;;;;;;4984221;28;20058;-73
2022/04/11 06:45:59;;;;;;;4.10;1.42;;;4.70;99.90;;;;;;5000654;28;20093;-73
2022/04/11 06:48:25;;;;;;;3.10;1.55;;;5.70;99.90;;;;;;5000289;28;20123;-73
2022/04/11 06:50:51;;;;;;;3.00;1.40;;;4.70;99.90;;;;;;5016872;28;20050;-73
2022/04/11 06:53:17;;;;;;;2.83;1.60;;;4.80;99.90;;;;;;5016319;28;20041;-73
2022/04/11 06:55:44;;;;;;;4.53;1.90;;;4.90;99.90;;;;;;5017472;28;20129;-73
2022/04/11 06:58:10;;;;;;;5.82;1.95;;;4.90;99.90;;;;;;5016306;28;20046;-73
2022/04/11 07:00:35;;;;;;;4.53;1.45;;;5.00;99.90;;;;;;5017379;28;20371;-73
2022/04/11 07:03:01;;;;;;;4.75;1.88;;;5.10;99.90;;;;;;5000316;28;20054;-73
2022/04/11 07:05:27;;;;;;;4.72;2.03;;;5.10;99.90;;;;;;5016839;28;20073;-74
2022/04/11 07:07:53;;;;;;;3.75;1.73;;;5.10;99.90;;;;;;4984009;28;20132;-74
2022/04/11 07:10:18;;;;;;;2.85;1.77;;;5.90;99.90;;;;;;5016337;28;20425;-73
2022/04/11 07:12:44;;;;;;;3.30;1.83;;;5.20;99.90;;;;;;5017147;28;20058;-73
2022/04/11 07:15:10;;;;;;;6.72;2.28;;;5.70;99.90;;;;;;5017579;28;20049;-73
2022/04/11 07:17:36;;;;;;;5.78;2.35;;;5.30;99.90;;;;;;5000226;28;20046;-73
2022/04/11 07:20:02;;;;;;;3.15;1.60;;;5.30;99.90;;;;;;5017190;28;20042;-73
2022/04/11 07:22:28;;;;;;;6.75;2.03;;;5.40;99.90;;;;;;5017178;28;20084;-73
2022/04/11 07:24:54;;;;;;;2.20;1.63;;;5.60;99.90;;;;;;5015796;28;20085;-73
2022/04/11 07:27:20;;;;;;;5.40;1.85;;;5.50;99.90;;;;;;5015848;28;20056;-71
2022/04/11 07:29:45;;;;;;;3.30;1.58;;;5.60;99.90;;;;;;5017054;28;20111;-71
2022/04/11 07:32:11;;;;;;;4.63;1.73;;;5.90;99.90;;;;;;5016909;28;20474;-72
2022/04/11 07:34:37;;;;;;;5.82;2.13;;;5.70;99.90;;;;;;5016037;28;20084;-72
2022/04/11 07:37:03;;;;;;;2.50;1.50;;;5.80;99.90;;;;;;5015742;28;20084;-71
2022/04/11 07:39:29;;;;;;;4.28;1.50;;;5.80;99.90;;;;;;5016918;28;20081;-72
2022/04/11 07:41:55;;;;;;;4.85;1.63;;;5.90;99.90;;;;;;5000450;28;20077;-72
2022/04/11 07:44:22;;;;;;;6.20;1.45;;;6.00;99.90;;;;;;5016216;28;20038;-72
2022/04/11 07:46:47;;;;;;;2.33;1.10;;;6.00;99.90;;;;;;5015652;28;20050;-71
2022/04/11 07:49:13;;;;;;;2.72;1.20;;;6.10;99.90;;;;;;5016128;28;20493;-76
2022/04/11 07:51:39;;;;;;;2.55;1.10;;;6.20;99.90;;;;;;5015395;28;20057;-73
2022/04/11 07:54:05;;;;;;;2.47;1.10;;;7.00;99.90;;;;;;4999571;28;20371;-73
2022/04/11 07:56:30;;;;;;;1.88;1.20;;;6.30;99.90;;;;;;5016144;28;20100;-76
2022/04/11 07:58:56;;;;;;;4.10;1.40;;;6.40;99.90;;;;;;5016572;28;20049;-76
2022/04/11 08:01:23;;;;;;;1.98;1.13;;;6.50;99.90;;;;;;5016103;28;20501;-75
2022/04/11 08:03:49;;;;;;;2.40;1.27;;;6.50;99.90;;;;;;5015208;28;20402;-74
2022/04/11 08:06:15;;;;;;;2.33;1.10;;;7.20;99.90;;;;;;5015978;28;20038;-72
2022/04/11 08:08:44;;;;;;;1.85;1.00;;;6.80;99.90;;;;;;4998995;28;20053;-74
2022/04/11 08:11:19;;;;;;;5.15;0.90;;;6.80;99.90;;;;;;5015217;28;20061;-75
2022/04/11 08:13:45;;;;;;;3.08;1.10;;;6.80;99.90;;;;;;5016531;28;20054;-75
2022/04/11 08:16:12;;;;;;;3.03;0.80;;;6.90;99.90;;;;;;5016720;28;20356;-75
2022/04/11 08:18:38;;;;;;;2.15;0.80;;;7.00;99.90;;;;;;5015140;28;20065;-75
2022/04/11 08:21:04;;;;;;;1.85;0.80;;;7.00;99.90;;;;;;4998799;28;20482;-74
2022/04/11 08:23:30;;;;;;;3.58;1.20;;;7.10;99.90;;;;;;5015647;28;20056;-75
2022/04/11 08:25:56;;;;;;;2.85;0.98;;;7.10;99.90;;;;;;5015098;28;20343;-74
2022/04/11 08:28:22;;;;;;;2.40;0.90;;;7.10;99.90;;;;;;5015960;28;20103;-75
2022/04/11 08:30:49;;;;;;;2.83;0.93;;;7.20;99.90;;;;;;5016220;28;20050;-75
2022/04/11 08:33:14;;;;;;;1.67;0.90;;;7.20;99.90;;;;;;5016166;28;20398;-75
2022/04/11 08:35:40;;;;;;;1.52;1.00;;;7.20;99.90;;;;;;5015849;28;20045;-75
2022/04/11 08:38:06;;;;;;;1.92;0.90;;;7.30;99.90;;;;;;5015995;28;20054;-75
2022/04/11 08:40:32;;;;;;;2.97;1.20;;;7.20;99.90;;;;;;5014835;28;20056;-75
2022/04/11 08:42:59;;;;;;;3.20;1.00;;;7.30;99.90;;;;;;4998300;28;20050;-76
2022/04/11 08:45:27;;;;;;;2.70;1.02;;;7.30;99.90;;;;;;5015565;28;20046;-75
2022/04/11 08:47:56;;;;;;;1.35;0.80;;;7.30;99.90;;;;;;5013035;28;20393;-73
2022/04/11 08:50:26;;;;;;;3.08;0.80;;;7.40;99.90;;;;;;5013829;28;20053;-75
2022/04/11 08:52:54;;;;;;;3.92;0.90;;;7.40;99.90;;;;;;5014664;28;20041;-74
2022/04/11 08:55:21;;;;;;;2.05;0.90;;;7.50;99.90;;;;;;5014307;28;20509;-74
2022/04/11 08:57:47;;;;;;;1.45;0.80;;;7.50;99.90;;;;;;4997847;28;20045;-74
2022/04/11 09:00:14;;;;;;;4.88;1.20;;;7.50;99.90;;;;;;5013965;28;20041;-74
2022/04/11 09:02:42;;;;;;;5.13;0.85;;;7.60;99.90;;;;;;5014070;28;20482;-74
2022/04/11 09:05:09;;;;;;;2.67;1.00;;;7.60;99.90;;;;;;5013484;28;20091;-74
2022/04/11 09:07:55;;;;;;;1.65;0.90;;;7.60;99.90;;;;;;4997405;28;20049;-74
2022/04/11 09:10:26;;;;;;;2.38;0.80;;;7.70;99.90;;;;;;5013828;28;20191;-74
2022/04/11 09:12:54;;;;;;;2.60;0.73;;;7.80;99.90;;;;;;5015395;28;20153;-75
2022/04/11 09:15:23;;;;;;;1.75;0.80;;;7.80;99.90;;;;;;5013895;28;20133;-75
2022/04/11 09:17:50;;;;;;;4.03;1.13;;;7.80;99.90;;;;;;4997126;28;20544;-74
2022/04/11 09:20:21;;;;;;;3.53;1.30;;;7.90;99.90;;;;;;5012911;28;20128;-74
2022/04/11 09:22:48;;;;;;;3.10;0.90;;;7.90;99.90;;;;;;5013721;28;20096;-75
2022/04/11 09:25:27;;;;;;;2.47;0.88;;;8.00;99.90;;;;;;4996410;28;20046;-74
2022/04/11 09:28:10;;;;;;;3.00;0.80;;;8.00;99.90;;;;;;5013408;28;20050;-74
2022/04/11 09:30:37;;;;;;;2.22;0.90;;;8.10;99.90;;;;;;5014144;28;20046;-76
2022/04/11 09:33:05;;;;;;;2.33;1.05;;;8.10;99.90;;;;;;4996129;28;20049;-76
2022/04/11 09:35:40;;;;;;;2.30;0.70;;;8.20;99.90;;;;;;5013140;28;20054;-76
2022/04/11 09:38:08;;;;;;;3.20;0.80;;;8.30;99.90;;;;;;5013470;28;20042;-74
2022/04/11 09:40:54;;;;;;;2.70;0.90;;;8.30;99.90;;;;;;5012657;28;20042;-77
2022/04/11 09:43:25;;;;;;;3.33;0.70;;;8.30;99.90;;;;;;5013493;28;20101;-76
2022/04/11 09:45:54;;;;;;;2.97;0.75;;;8.50;99.90;;;;;;5013895;28;20121;-76
2022/04/11 09:48:28;;;;;;;3.42;0.80;;;8.50;99.90;;;;;;5013052;28;20168;-76
2022/04/11 09:50:56;;;;;;;4.75;0.95;;;8.60;99.90;;;;;;5014151;28;20095;-76
2022/04/11 09:53:33;;;;;;;1.77;0.80;;;8.70;99.90;;;;;;5013071;28;20442;-76
2022/04/11 09:56:05;;;;;;;2.15;0.70;;;8.70;99.90;;;;;;5013318;28;20053;-76
2022/04/11 09:58:34;;;;;;;4.05;0.80;;;8.70;99.90;;;;;;5014023;28;20057;-76
2022/04/11 10:01:03;;;;;;;3.25;0.80;;;8.80;99.90;;;;;;5013153;28;20083;-76
2022/04/11 10:03:30;;;;;;;3.63;0.75;;;8.90;99.90;;;;;;5012889;28;20057;-76
2022/04/11 10:05:57;;;;;;;2.10;0.60;;;8.90;99.90;;;;;;4996124;28;20056;-76
2022/04/11 10:08:26;;;;;;;1.05;0.68;;;9.00;99.90;;;;;;4995985;28;20058;-76
2022/04/11 10:10:55;;;;;;;1.10;0.60;;;9.00;99.90;;;;;;5013241;28;20065;-75
2022/04/11 10:13:21;;;;;;;2.80;0.70;;;9.10;99.90;;;;;;4995874;28;20057;-74
2022/04/11 10:15:49;;;;;;;2.03;0.57;;;9.10;99.90;;;;;;5014038;28;20038;-76
2022/04/11 10:18:24;;;;;;;1.27;0.70;;;9.20;99.90;;;;;;5013697;28;20052;-76
2022/04/11 10:20:52;;;;;;;3.92;0.60;;;9.30;99.90;;;;;;5013993;28;20128;-76
2022/04/11 10:23:34;;;;;;;2.08;0.70;;;9.40;99.90;;;;;;4996671;28;20042;-75
2022/04/11 10:26:11;;;;;;;2.35;0.68;;;9.40;99.90;;;;;;5012842;28;20406;-75
2022/04/11 10:28:47;;;;;;;1.67;0.80;;;9.40;99.90;;;;;;5012948;28;20137;-75
2022/04/11 10:31:14;;;;;;;2.97;0.70;;;9.50;99.90;;;;;;5012728;28;20112;-75
2022/04/11 10:33:57;;;;;;;2.35;0.70;;;9.50;99.90;;;;;;5012531;28;20050;-76
2022/04/11 10:36:36;;;;;;;;;;;9.60;99.90;;;;;;5015048;28;20112;-76
2022/04/11 10:39:16;;;;;;;3.00;0.63;;;9.60;99.90;;;;;;5012689;28;19943;-77
2022/04/11 10:41:54;;;;;;;2.60;0.45;;;9.70;99.90;;;;;;5012516;28;20049;-76
2022/04/11 10:44:33;;;;;;;1.98;0.68;;;9.70;99.90;;;;;;5012836;28;20053;-77
2022/04/11 10:47:08;;;;;;;0.88;0.50;;;9.70;99.90;;;;;;5012558;28;20052;-77
2022/04/11 10:49:55;;;;;;;5.47;0.75;;;9.70;99.90;;;;;;4996437;28;20390;-77
2022/04/11 10:52:31;;;;;;;3.13;0.80;;;9.80;99.90;;;;;;5012803;28;20046;-77
2022/04/11 10:55:05;;;;;;;2.08;0.50;;;9.90;99.90;;;;;;5012779;28;20056;-75
2022/04/11 10:57:38;;;;;;;1.75;0.60;;;10.00;99.90;;;;;;5012508;28;20056;-79
2022/04/11 11:00:25;;;;;;;2.92;0.50;;;10.00;99.90;;;;;;5013759;28;20093;-77
2022/04/11 11:02:59;;;;;;;1.85;0.60;;;10.10;99.90;;;;;;5014759;28;20494;-77
2022/04/11 11:05:28;;;;;;;0.70;0.60;;;10.10;99.90;;;;;;4997661;28;20477;-76
2022/04/11 11:08:09;;;;;;;2.08;0.75;;;10.20;99.90;;;;;;5013826;28;20136;-77
2022/04/11 11:10:41;;;;;;;1.73;0.50;;;10.20;99.90;;;;;;5012725;28;20433;-77
2022/04/11 11:13:27;;;;;;;1.50;0.60;;;10.30;99.90;;;;;;5012620;28;20046;-77
2022/04/11 11:15:55;;;;;;;1.20;0.60;;;10.30;99.90;;;;;;5013536;28;20050;-78
2022/04/11 11:18:20;;;;;;;1.15;0.70;;;10.40;99.90;;;;;;5013012;28;20057;-78
2022/04/11 11:20:52;;;;;;;4.07;0.60;;;10.40;99.90;;;;;;4996186;28;20042;-79
2022/04/11 11:23:30;;;;;;;2.17;0.68;;;10.50;99.90;;;;;;5013493;28;20061;-79
2022/04/11 11:26:08;;;;;;;0.90;0.60;;;10.50;99.90;;;;;;5014418;28;20394;-79
2022/04/11 11:28:34;;;;;;;1.33;0.60;;;10.50;99.90;;;;;;5016192;28;20121;-78
2022/04/11 11:30:59;;;;;;;2.30;0.75;;;10.50;99.90;;;;;;5016647;28;20180;-76
2022/04/11 11:33:27;;;;;;;3.35;0.75;;;10.70;99.90;;;;;;5016697;28;20049;-77
2022/04/11 11:35:54;;;;;;;1.40;0.70;;;10.70;99.90;;;;;;5016693;28;20555;-78
2022/04/11 11:38:28;;;;;;;5.75;1.13;;;10.70;99.90;;;;;;5016849;28;20111;-77
2022/04/11 11:40:59;;;;;;;2.42;0.75;;;10.80;99.90;;;;;;5016782;28;20045;-77
2022/04/11 11:43:26;;;;;;;3.83;1.00;;;10.80;99.90;;;;;;5016925;28;20049;-78
2022/04/11 11:45:57;;;;;;;2.88;0.90;;;10.90;99.70;;;;;;5015995;28;20042;-76
2022/04/11 11:48:29;;;;;;;1.58;0.77;;;10.90;98.70;;;;;;5015904;28;20129;-77
2022/04/11 11:50:57;;;;;;;2.53;0.82;;;10.90;98.20;;;;;;4999588;28;20057;-76
2022/04/11 11:53:25;;;;;;;1.92;0.90;;;10.90;98.60;;;;;;5015640;28;20046;-76
2022/04/11 11:55:58;;;;;;;2.00;1.00;;;10.90;97.60;;;;;;4999127;28;20053;-77
2022/04/11 11:58:44;;;;;;;;;;;10.90;97.30;;;;;;5015677;28;20046;-77
2022/04/11 12:01:14;;;;;;;2.42;0.80;;;10.90;98.90;;;;;;5015087;28;20012;-77
2022/04/11 12:06:31;;;;;;;3.60;0.80;;;11.00;97.60;;;;;;5014871;28;20042;-75
2022/04/11 12:09:03;;;;;;;1.65;1.05;;;11.00;97.70;;;;;;4999148;28;20478;-76
2022/04/11 12:11:30;;;;;;;2.60;0.90;;;11.00;97.10;;;;;;4998521;28;20133;-76
2022/04/11 12:14:07;;;;;;;3.40;0.90;;;11.00;95.30;;;;;;5017888;28;20058;-76
2022/04/11 12:16:35;;;;;;;2.03;0.95;;;11.10;95.20;;;;;;5014700;28;20545;-76
2022/04/11 12:19:04;;;;;;;2.70;1.00;;;11.10;94.10;;;;;;5016098;28;20058;-76
2022/04/11 12:21:34;;;;;;;2.95;1.02;;;11.10;94.10;;;;;;5015040;28;20125;-76
2022/04/11 12:24:05;;;;;;;1.45;0.88;;;11.10;94.30;;;;;;5015345;28;20092;-76
2022/04/11 12:26:35;;;;;;;1.83;1.00;;;11.10;94.00;;;;;;5014979;28;20081;-76
2022/04/11 12:29:15;;;;;;;2.25;0.90;;;11.20;94.70;;;;;;5016080;28;20046;-74
2022/04/11 12:31:58;;;;;;;1.95;0.90;;;11.20;95.20;;;;;;5015124;28;20057;-76
2022/04/11 12:34:37;;;;;;;2.20;0.80;;;11.30;96.00;;;;;;5014340;28;20494;-76
2022/04/11 12:37:05;;;;;;;2.22;1.05;;;11.30;95.80;;;;;;5014772;28;20056;-76
2022/04/11 12:39:32;;;;;;;2.03;1.02;;;11.40;94.50;;;;;;5015735;28;20054;-76
2022/04/11 12:41:58;;;;;;;2.97;1.25;;;11.40;94.60;;;;;;5014410;28;20041;-76
2022/04/11 12:44:35;;;;;;;3.13;1.08;;;11.40;93.70;;;;;;4997980;28;20411;-76
2022/04/11 12:47:01;;;;;;;2.83;1.10;;;11.50;93.20;;;;;;4998002;28;20401;-76
2022/04/11 12:49:44;;;;;;;2.05;1.10;;;11.50;93.00;;;;;;5014501;28;20037;-77
2022/04/11 12:52:10;;;;;;;3.90;1.30;;;11.50;93.50;;;;;;4998662;28;20137;-76
2022/04/11 12:54:50;;;;;;;3.60;1.25;;;11.50;93.70;;;;;;5015197;28;20042;-76
2022/04/11 12:57:24;;;;;;;2.28;1.20;;;11.60;93.90;;;;;;5015289;28;20474;-77
2022/04/11 12:59:51;;;;;;;2.55;1.35;;;11.60;93.90;;;;;;5015619;28;20190;-76
2022/04/11 13:02:19;;;;;;;3.30;1.30;;;11.70;93.70;;;;;;5014888;28;20072;-76